Tuscaloosa Regional Airport
KTCL : now visible

Airfield :











YOU CAN JOIN US ON...

 
LOGIN :

Register | Disclaimer

   EN    FR    IT 

 









Legend :    VFR   Marginal VFR   IFR   Intensive IFR   Very Intensive IFR
Visi :
Ceiling :
>= 8 km
>= 3000ft
5 to 8 km
1000 to 3000 ft
1500m to 5 km
500 to 1000 ft
800 to 1500m
200 to 500 ft
< 800m
< 200 ft
Symbols :   Thunderstorms  Fog  Heavy snow  Heavy precipitations  Wind > 20 kt






- Airport Elevation : 170 ft
- IATA code : TCL


KTCL - Tuscaloosa Regional

CURRENT METAR :
  • 212253Z 00000KT 10SM FEW075 BKN110 20/18 A2986 RMK AO2 RAE50 PRESRR SLP111 P0001 T02000183

EXPIRED METARs :
  • 212153Z 00000KT 10SM -RA BKN120 19/18 A2986 RMK AO2 SLP111 P0002 T01940183
  • 212053Z 33006KT 4SM -RA BR OVC110 19/17 A2990 RMK AO2 SLP124 P0002 60005 T01940172 55005

TAF KTCL
Valid from the 21 at 18:00 until the 22 at 18:00 UTC


211722Z 2118/2218 21007G17KT 4SM -SHRA BKN015
TEMPO 2118/2121 2SM TSRA BKN010CB
FM220000 23005KT P6SM VCSH OVC008
FM221200 31010G20KT P6SM SCT050



MET'MAP, your aeronautical weather chart ! - Copyright ORBIFLY December 2007 - Disclaimer

ORBIFLY MET'MAP TEAM :

Programming & Development : Alexandra Zaïnal
Concept & Development : Baudouin d'Aumeries
Co-Development & Prog : Marc-Olivier Méhu
Technical & hardware support : Manuel Goepfert

Contact : metmap@orbifly.com




SOURCES & CREDITS :

   NOAA       Earth
Advisory